Terminal Aerodrome Forecast
Issued by NWS

Home | Current Version | Previous Version | Text Only | Print | Product List | Glossary On
Versions: 1 2 3 4 5 6 7 8 9 10 11 12
000
FTUS43 KMPX 290520
TAFRWF
TAF
KRWF 290520Z 2906/3006 30012G19KT P6SM SCT060
     FM291200 30006KT P6SM BKN060
      TEMPO 2912/2915 BKN020
     FM291500 34006KT P6SM SCT090
     FM291800 34005KT P6SM SCT040 BKN110
     FM292200 36006KT P6SM VCSH BKN040
     FM300300 04005KT 6SM -SHRA BKN030=

USA.gov is the U.S. government's official web portal to all federal, state and local government web resources and services.